Time;durP1;ratioP1;P1;durP2;ratioP2;P2;SDS_P1;SDS_P2;PMS_P1;PMS_P2;Temp;Humidity;BMP_temperature;BMP_pressure;BME280_temperature;BME280_humidity;BME280_pressure;Samples;Min_cycle;Max_cycle;Signal;HPM_P1;HPM_P2
2022/01/29 14:03:12;;;;;;;22.27;3.42;;;19.80;50.30;;;;;;21196998;27;20133;-81
2022/01/29 14:13:13;;;;;;;13.05;2.40;;;20.30;47.20;;;;;;21165860;28;20039;-82
2022/01/29 14:23:16;;;;;;;12.25;3.17;;;20.90;46.50;;;;;;21169378;28;20024;-83
2022/01/29 14:33:16;;;;;;;22.63;5.25;;;21.10;48.50;;;;;;21154325;28;20149;-82
2022/01/29 14:43:20;;;;;;;17.80;4.60;;;21.10;46.90;;;;;;21163558;28;20024;-83
2022/01/29 14:53:27;;;;;;;21.42;5.55;;;21.20;46.80;;;;;;21221384;28;20057;-82
2022/01/29 15:03:31;;;;;;;13.57;4.00;;;21.10;46.60;;;;;;21161839;28;20110;-82
2022/01/29 15:13:41;;;;;;;11.63;3.67;;;21.10;47.50;;;;;;21118818;28;20366;-83
2022/01/29 15:23:44;;;;;;;12.43;4.07;;;21.10;48.10;;;;;;21105908;28;20150;-82
2022/01/29 15:33:51;;;;;;;13.63;3.15;;;21.00;47.20;;;;;;21121481;28;20032;-82
2022/01/29 15:44:03;;;;;;;9.00;3.03;;;20.90;47.30;;;;;;21138732;28;20031;-83
2022/01/29 15:54:04;;;;;;;11.68;3.20;;;20.90;47.20;;;;;;21096590;28;20036;-82
2022/01/29 16:04:20;;;;;;;15.03;3.97;;;20.80;47.10;;;;;;21129764;28;20035;-82
2022/01/29 16:14:37;;;;;;;9.18;2.95;;;20.70;47.20;;;;;;21132043;28;20458;-83
2022/01/29 16:35:17;;;;;;;7.03;2.53;;;20.60;47.30;;;;;;21140689;28;20028;-83
2022/01/29 16:45:35;;;;;;;7.45;2.97;;;20.60;47.40;;;;;;21143749;28;20035;-83
2022/01/29 16:55:51;;;;;;;8.80;2.27;;;20.60;47.40;;;;;;21115586;28;20032;-82
2022/01/29 17:06:10;;;;;;;7.82;2.58;;;20.50;47.40;;;;;;21104184;28;20036;-82
2022/01/29 17:16:35;;;;;;;5.67;2.37;;;20.50;47.50;;;;;;21137805;28;20032;-82
2022/01/29 17:26:47;;;;;;;4.70;1.95;;;20.50;47.50;;;;;;21125012;28;20485;-82
2022/01/29 17:58:44;;;;;;;3.45;1.30;;;20.40;47.50;;;;;;21084434;28;20032;-82
2022/01/29 18:09:31;;;;;;;4.03;1.83;;;20.30;47.40;;;;;;21092283;28;20470;-82
2022/01/29 18:19:32;;;;;;;3.08;1.20;;;20.30;47.40;;;;;;21125572;28;20028;-82
2022/01/29 18:29:58;;;;;;;3.92;2.28;;;20.30;47.40;;;;;;21094897;28;20024;-82
2022/01/29 18:40:21;;;;;;;4.72;1.88;;;20.30;47.40;;;;;;21081207;28;20111;-83
2022/01/29 19:11:56;;;;;;;3.22;1.52;;;20.20;47.30;;;;;;21111437;28;20020;-82
2022/01/29 19:22:30;;;;;;;3.03;1.60;;;20.20;47.30;;;;;;21097934;28;20031;-83
2022/01/29 19:32:58;;;;;;;3.10;1.58;;;20.20;47.30;;;;;;21104250;28;20028;-82
2022/01/29 20:47:57;;;;;;;2.63;1.02;;;20.00;46.80;;;;;;21004122;28;20033;-78
2022/01/29 20:58:19;;;;;;;2.33;1.00;;;20.00;46.80;;;;;;20994455;28;20028;-79
2022/01/29 21:08:51;;;;;;;2.15;0.90;;;20.10;48.00;;;;;;20984682;28;21036;-78
2022/01/29 21:19:13;;;;;;;3.10;1.25;;;20.20;50.30;;;;;;20987992;28;20044;-78
2022/01/29 21:29:45;;;;;;;2.22;1.20;;;20.30;47.80;;;;;;20999817;28;20028;-78
2022/01/29 21:40:23;;;;;;;3.85;1.38;;;20.30;47.70;;;;;;20996297;28;20068;-78
2022/01/29 21:50:48;;;;;;;1.50;0.85;;;20.30;47.10;;;;;;21012698;28;20052;-78
2022/01/29 22:01:26;;;;;;;2.45;0.88;;;20.20;46.80;;;;;;20983555;28;20032;-78
2022/01/29 22:12:18;;;;;;;3.03;0.98;;;20.20;46.70;;;;;;20982315;28;20040;-80
2022/01/29 22:23:02;;;;;;;2.40;0.82;;;20.10;46.70;;;;;;20974716;28;20028;-77
2022/01/29 22:33:18;;;;;;;2.58;0.93;;;20.10;46.70;;;;;;20979029;28;20037;-77
2022/01/29 22:43:37;;;;;;;1.63;0.73;;;20.10;46.70;;;;;;21010002;28;20040;-78
2022/01/29 22:54:05;;;;;;;2.63;0.97;;;20.10;46.70;;;;;;21003860;28;20024;-78
2022/01/29 23:04:23;;;;;;;8.82;1.30;;;20.10;46.60;;;;;;20988725;28;20116;-78
2022/01/29 23:14:33;;;;;;;4.30;1.33;;;20.10;48.50;;;;;;20983449;28;20035;-77
2022/01/29 23:25:03;;;;;;;9.65;1.58;;;20.30;46.50;;;;;;20951299;28;20212;-77
2022/01/29 23:35:43;;;;;;;3.15;1.25;;;20.40;46.40;;;;;;20874850;28;20029;-76
2022/01/29 23:56:21;;;;;;;13.80;2.00;;;20.50;46.60;;;;;;20952158;28;20374;-77
